Time;durP1;ratioP1;P1;durP2;ratioP2;P2;SDS_P1;SDS_P2;PMS_P1;PMS_P2;Temp;Humidity;BMP_temperature;BMP_pressure;BME280_temperature;BME280_humidity;BME280_pressure;Samples;Min_cycle;Max_cycle;Signal;HPM_P1;HPM_P2
2021/12/05 00:24:07;;;;;;;4.40;3.10;;;4.10;99.90;;;;;;5074550;28;20264;-88
2021/12/05 00:26:35;;;;;;;3.97;3.20;;;4.10;99.90;;;;;;5058653;28;20173;-88
2021/12/05 00:29:17;;;;;;;3.40;2.60;;;4.10;99.90;;;;;;5058161;28;20200;-88
2021/12/05 01:11:22;;;;;;;6.23;1.97;;;3.90;99.90;;;;;;5074288;28;20207;-88
2021/12/05 01:16:29;;;;;;;8.57;3.97;;;3.90;99.90;;;;;;5073812;28;20173;-88
2021/12/05 01:18:56;;;;;;;5.57;3.27;;;3.90;99.90;;;;;;5057487;28;20197;-88
2021/12/05 01:21:25;;;;;;;9.17;2.17;;;3.90;99.90;;;;;;5057163;28;20193;-88
2021/12/05 01:24:12;;;;;;;3.27;2.03;;;3.90;99.90;;;;;;5057868;28;20181;-88
2021/12/05 01:26:52;;;;;;;2.80;1.50;;;3.80;99.90;;;;;;5058006;28;20174;-88
2021/12/05 01:34:55;;;;;;;2.73;1.13;;;3.80;99.90;;;;;;5072716;28;20177;-88
2021/12/05 01:51:31;;;;;;;5.53;1.40;;;3.70;99.90;;;;;;5073435;28;20212;-88
2021/12/05 02:02:23;;;;;;;3.47;1.60;;;3.70;99.90;;;;;;5073188;28;20176;-88
2021/12/05 02:42:24;;;;;;;3.63;1.67;;;3.90;99.90;;;;;;5072799;28;20183;-88
2021/12/05 02:44:51;;;;;;;3.17;1.90;;;3.80;99.90;;;;;;5056043;28;20176;-88
2021/12/05 02:47:22;;;;;;;4.77;1.60;;;3.90;99.90;;;;;;5055497;28;20177;-88
2021/12/05 02:49:51;;;;;;;4.90;1.97;;;3.90;99.90;;;;;;5055631;28;20173;-88
2021/12/05 02:52:26;;;;;;;5.63;1.90;;;3.90;99.90;;;;;;5055887;28;20197;-88
2021/12/05 02:54:58;;;;;;;3.83;1.40;;;3.90;99.90;;;;;;5055766;28;20203;-88
2021/12/05 02:58:15;;;;;;;5.07;1.40;;;3.90;99.90;;;;;;5055949;28;20201;-88
2021/12/05 03:00:20;;;;;;;4.33;1.20;;;3.90;99.90;;;;;;5062165;28;20642;-88
2021/12/05 03:02:48;;;;;;;3.30;1.43;;;3.90;99.90;;;;;;5055909;28;20170;-88
2021/12/05 03:05:19;;;;;;;4.00;1.20;;;4.00;99.90;;;;;;5055698;28;20271;-88
2021/12/05 03:07:47;;;;;;;2.00;1.33;;;4.00;99.90;;;;;;5055341;28;20197;-88
2021/12/05 03:10:18;;;;;;;4.60;1.50;;;4.00;99.90;;;;;;5055397;28;20181;-88
2021/12/05 03:13:01;;;;;;;5.93;1.53;;;4.00;99.90;;;;;;5055033;28;20292;-88
2021/12/05 03:15:28;;;;;;;2.77;1.30;;;4.00;99.90;;;;;;5055364;28;20173;-88
2021/12/05 03:17:54;;;;;;;3.90;1.20;;;4.00;99.90;;;;;;5055679;28;20292;-88
2021/12/05 03:20:21;;;;;;;2.37;1.53;;;4.00;99.90;;;;;;5055177;28;20231;-88
2021/12/05 03:22:47;;;;;;;2.60;1.13;;;4.00;99.90;;;;;;5056274;28;20181;-88
2021/12/05 03:25:14;;;;;;;3.50;1.13;;;4.00;99.90;;;;;;5059542;28;20199;-88
2021/12/05 03:27:41;;;;;;;2.90;1.00;;;4.00;99.90;;;;;;5059512;28;20220;-88
2021/12/05 03:30:10;;;;;;;2.70;1.33;;;4.00;99.90;;;;;;5059190;28;20181;-88
2021/12/05 03:32:37;;;;;;;2.67;1.37;;;4.00;99.90;;;;;;5059408;28;20206;-88
2021/12/05 03:35:05;;;;;;;3.37;1.50;;;3.90;99.90;;;;;;5059508;28;20196;-88
2021/12/05 03:37:31;;;;;;;6.40;1.87;;;3.90;99.90;;;;;;5059476;28;20201;-88
2021/12/05 03:40:03;;;;;;;4.47;1.30;;;3.90;99.90;;;;;;5059868;28;20227;-88
2021/12/05 03:42:31;;;;;;;3.43;1.40;;;3.90;99.90;;;;;;5059342;28;20177;-88
2021/12/05 03:44:57;;;;;;;4.60;1.17;;;3.90;99.90;;;;;;5059011;28;20178;-88
2021/12/05 03:47:28;;;;;;;1.20;0.87;;;3.90;99.90;;;;;;5059394;28;20200;-88
2021/12/05 03:49:55;;;;;;;3.47;1.10;;;3.90;99.90;;;;;;5058994;28;20564;-88
2021/12/05 03:52:24;;;;;;;4.37;1.30;;;3.90;99.90;;;;;;5059032;28;20208;-88
2021/12/05 03:54:49;;;;;;;3.60;1.23;;;3.90;99.90;;;;;;5058917;28;20259;-88
2021/12/05 03:57:16;;;;;;;1.63;0.97;;;3.90;99.90;;;;;;5058486;28;20184;-88
2021/12/05 03:59:44;;;;;;;3.00;1.10;;;3.90;99.90;;;;;;5058539;28;20180;-88
2021/12/05 04:02:10;;;;;;;3.60;1.00;;;3.90;99.90;;;;;;5058572;28;20192;-88
2021/12/05 04:04:40;;;;;;;1.70;1.00;;;3.90;99.90;;;;;;5059184;28;20185;-88
2021/12/05 04:07:08;;;;;;;3.00;1.37;;;3.90;99.90;;;;;;5058907;28;20200;-88
2021/12/05 04:09:35;;;;;;;4.30;1.67;;;3.90;99.90;;;;;;5058108;28;20268;-88
2021/12/05 04:12:03;;;;;;;4.50;1.17;;;3.90;99.90;;;;;;5058470;28;20205;-88
2021/12/05 04:14:40;;;;;;;3.93;1.47;;;3.80;99.90;;;;;;5059277;28;20275;-88
2021/12/05 04:17:09;;;;;;;3.77;1.43;;;3.80;99.90;;;;;;5058598;28;20173;-88
2021/12/05 04:19:37;;;;;;;4.20;1.30;;;3.80;99.90;;;;;;5058141;28;20192;-89
2021/12/05 04:22:05;;;;;;;2.97;1.20;;;3.80;99.90;;;;;;5058430;28;20184;-88
2021/12/05 04:24:32;;;;;;;2.43;1.00;;;3.80;99.90;;;;;;5059312;28;20244;-88
2021/12/05 04:26:58;;;;;;;3.50;1.33;;;3.80;99.90;;;;;;5059092;28;20182;-88
2021/12/05 04:29:25;;;;;;;3.67;1.23;;;3.80;99.90;;;;;;5057685;28;20216;-88
2021/12/05 04:31:51;;;;;;;2.33;0.93;;;3.70;99.90;;;;;;5058312;28;20213;-88
2021/12/05 04:34:17;;;;;;;2.40;1.23;;;3.70;99.90;;;;;;5057867;28;20182;-88
2021/12/05 04:36:44;;;;;;;1.67;1.00;;;3.70;99.90;;;;;;5058179;28;20184;-88
2021/12/05 04:39:12;;;;;;;3.07;1.10;;;3.70;99.90;;;;;;5057710;28;20197;-88
2021/12/05 04:41:42;;;;;;;5.87;1.17;;;3.70;99.90;;;;;;5057804;28;20180;-88
2021/12/05 04:44:09;;;;;;;2.77;0.90;;;3.80;99.90;;;;;;5057917;28;20181;-88
2021/12/05 04:46:37;;;;;;;3.20;1.00;;;3.70;99.90;;;;;;5057649;28;20185;-88
2021/12/05 04:49:05;;;;;;;2.73;0.90;;;3.70;99.90;;;;;;5057834;28;20300;-88
2021/12/05 04:51:35;;;;;;;5.67;1.37;;;3.70;99.90;;;;;;5057783;28;20194;-88
2021/12/05 04:54:02;;;;;;;2.50;0.90;;;3.60;99.90;;;;;;5057788;28;20169;-88
2021/12/05 04:56:29;;;;;;;3.20;1.20;;;3.60;99.90;;;;;;5057753;28;20185;-88
2021/12/05 04:58:56;;;;;;;2.30;1.23;;;3.60;99.90;;;;;;5057601;28;20200;-88
2021/12/05 05:01:37;;;;;;;3.70;1.10;;;3.70;99.90;;;;;;5057791;28;20634;-88
2021/12/05 05:04:08;;;;;;;3.93;1.27;;;3.60;99.90;;;;;;5057575;28;20199;-88
2021/12/05 05:06:34;;;;;;;3.57;1.10;;;3.60;99.90;;;;;;5057909;28;20197;-88
2021/12/05 05:09:00;;;;;;;2.10;1.27;;;3.60;99.90;;;;;;5057225;28;20201;-88
2021/12/05 05:11:26;;;;;;;3.13;1.10;;;3.60;99.90;;;;;;5057149;28;20198;-88
2021/12/05 05:13:52;;;;;;;3.40;0.90;;;3.60;99.90;;;;;;5057356;28;20177;-88
2021/12/05 05:16:22;;;;;;;2.83;0.87;;;3.50;99.90;;;;;;5057505;28;20186;-87
2021/12/05 05:18:52;;;;;;;1.70;0.90;;;3.40;99.90;;;;;;5057231;28;20193;-88
2021/12/05 05:21:36;;;;;;;2.23;0.77;;;3.30;99.90;;;;;;5056830;28;20279;-88
2021/12/05 05:27:15;;;;;;;3.30;1.00;;;3.30;99.90;;;;;;5073736;28;20178;-88
2021/12/05 05:50:53;;;;;;;3.10;1.17;;;3.00;99.90;;;;;;5072706;28;20177;-87
2021/12/05 05:53:19;;;;;;;4.73;0.97;;;2.90;99.90;;;;;;5056766;28;20173;-88
2021/12/05 05:55:45;;;;;;;2.17;1.10;;;2.90;99.90;;;;;;5056875;28;20188;-88
2021/12/05 05:58:16;;;;;;;1.30;0.93;;;2.90;99.90;;;;;;5056801;28;20284;-88
2021/12/05 06:01:01;;;;;;;2.90;1.20;;;2.90;99.90;;;;;;5056623;28;20166;-88
2021/12/05 06:03:27;;;;;;;1.17;1.00;;;2.90;99.90;;;;;;5057104;28;20173;-88
2021/12/05 06:06:04;;;;;;;1.97;1.10;;;2.90;99.90;;;;;;5056142;28;20245;-88
2021/12/05 06:08:32;;;;;;;3.47;1.50;;;2.90;99.90;;;;;;5056069;28;20197;-88
2021/12/05 06:11:02;;;;;;;4.57;1.27;;;2.80;99.90;;;;;;5056309;28;20304;-88
2021/12/05 06:13:29;;;;;;;4.57;1.40;;;2.80;99.90;;;;;;5056451;28;20199;-88
2021/12/05 06:15:56;;;;;;;4.93;1.10;;;2.80;99.90;;;;;;5056865;28;20199;-88
2021/12/05 06:18:22;;;;;;;3.37;1.40;;;2.80;99.90;;;;;;5056517;28;20200;-88
2021/12/05 06:20:49;;;;;;;2.87;1.23;;;2.80;99.90;;;;;;5055757;28;20210;-88
2021/12/05 06:23:15;;;;;;;3.00;1.30;;;2.80;99.90;;;;;;5056252;28;20209;-88
2021/12/05 06:25:44;;;;;;;6.60;4.53;;;2.70;99.90;;;;;;5056208;28;20173;-88
2021/12/05 06:28:13;;;;;;;4.53;3.00;;;2.70;99.90;;;;;;5056343;28;20201;-88
2021/12/05 06:30:49;;;;;;;3.00;1.60;;;2.80;99.90;;;;;;5056174;28;20558;-88
2021/12/05 06:39:19;;;;;;;4.03;1.53;;;2.90;99.90;;;;;;5052243;28;20198;-90
2021/12/05 06:42:20;;;;;;;2.27;1.30;;;3.00;99.90;;;;;;5054872;28;20265;-90
2021/12/05 06:47:31;;;;;;;2.13;1.30;;;3.00;99.90;;;;;;5071821;28;20200;-90
2021/12/05 06:49:58;;;;;;;4.13;1.60;;;3.00;99.90;;;;;;5056156;28;20181;-89
2021/12/05 06:52:43;;;;;;;3.50;1.43;;;3.00;99.90;;;;;;5055024;28;20282;-90
2021/12/05 06:55:39;;;;;;;3.97;1.93;;;3.00;99.90;;;;;;5055611;28;20184;-89
2021/12/05 06:58:04;;;;;;;2.90;1.60;;;3.00;99.90;;;;;;5055607;28;20224;-90
2021/12/05 07:00:31;;;;;;;4.30;1.50;;;3.00;99.90;;;;;;5055558;28;20181;-90
2021/12/05 07:02:57;;;;;;;2.83;1.10;;;2.90;99.90;;;;;;5055424;28;20193;-90
2021/12/05 07:07:49;;;;;;;4.67;1.70;;;2.90;99.90;;;;;;5072207;28;20204;-90
2021/12/05 07:10:17;;;;;;;3.83;2.00;;;2.90;99.90;;;;;;5056603;28;20303;-89
2021/12/05 07:15:36;;;;;;;2.60;1.73;;;2.80;99.90;;;;;;5066152;28;20177;-89
2021/12/05 07:21:16;;;;;;;3.33;1.87;;;2.60;99.90;;;;;;5051672;28;20573;-89
2021/12/05 07:23:57;;;;;;;4.07;2.60;;;2.60;99.90;;;;;;5049619;28;20268;-89
2021/12/05 07:40:28;;;;;;;8.13;4.33;;;2.60;99.90;;;;;;5068436;28;20175;-89
2021/12/05 07:43:01;;;;;;;10.77;6.93;;;2.60;99.90;;;;;;5037002;28;20232;-89
2021/12/05 07:45:34;;;;;;;8.97;7.27;;;2.60;99.90;;;;;;5035202;28;20201;-89
2021/12/05 07:48:18;;;;;;;5.53;4.13;;;2.50;99.90;;;;;;5035359;28;20193;-88
2021/12/05 07:51:08;;;;;;;5.43;3.03;;;2.40;99.90;;;;;;5034820;28;20205;-89
2021/12/05 07:54:06;;;;;;;10.30;6.43;;;2.30;99.90;;;;;;5051694;28;20200;-89
2021/12/05 07:59:10;;;;;;;12.03;5.63;;;2.10;99.90;;;;;;5051391;28;20316;-89
2021/12/05 08:15:28;;;;;;;7.67;3.00;;;2.30;99.90;;;;;;5075540;28;20178;-89
2021/12/05 08:17:58;;;;;;;8.10;3.50;;;2.40;99.90;;;;;;5054763;28;20194;-89
2021/12/05 08:20:31;;;;;;;5.10;4.30;;;2.40;99.90;;;;;;5038626;28;20194;-88
2021/12/05 08:23:00;;;;;;;5.93;3.37;;;2.50;99.90;;;;;;5045451;28;20177;-88
2021/12/05 08:25:30;;;;;;;4.67;2.70;;;2.50;99.90;;;;;;5058482;28;20173;-89
2021/12/05 08:28:18;;;;;;;8.60;4.43;;;2.50;99.90;;;;;;5048835;28;20297;-89
2021/12/05 08:30:53;;;;;;;7.30;4.50;;;2.60;99.90;;;;;;5038582;28;20225;-89
2021/12/05 08:33:53;;;;;;;5.57;3.80;;;2.60;99.90;;;;;;5047822;28;20195;-89
2021/12/05 09:38:33;;;;;;;5.03;3.63;;;3.20;99.90;;;;;;5073666;28;20192;-89
2021/12/05 10:01:58;;;;;;;5.03;2.10;;;3.90;99.90;;;;;;5052971;28;20178;-90
2021/12/05 10:10:38;;;;;;;6.60;2.37;;;4.30;99.90;;;;;;5072284;28;20209;-89
2021/12/05 10:16:49;;;;;;;4.77;2.20;;;4.70;99.90;;;;;;5053491;28;20208;-89
2021/12/05 10:37:57;;;;;;;2.70;1.70;;;5.70;99.90;;;;;;5073394;28;20217;-89
2021/12/05 10:40:34;;;;;;;4.93;1.90;;;5.70;99.90;;;;;;5072283;28;20171;-89
2021/12/05 10:43:03;;;;;;;4.53;1.80;;;5.70;99.90;;;;;;5039647;28;20207;-89
2021/12/05 10:45:51;;;;;;;3.50;1.83;;;5.70;99.90;;;;;;5050459;28;20180;-89
2021/12/05 10:48:23;;;;;;;5.70;2.87;;;5.70;99.90;;;;;;5048323;28;20211;-89
2021/12/05 10:50:54;;;;;;;6.47;3.27;;;5.80;99.90;;;;;;5055725;28;20201;-89
2021/12/05 10:53:29;;;;;;;4.23;3.13;;;5.70;99.90;;;;;;5041406;28;20186;-89
2021/12/05 10:56:00;;;;;;;4.13;1.73;;;5.80;99.90;;;;;;5045877;28;20167;-89
2021/12/05 10:58:33;;;;;;;4.87;1.73;;;5.80;99.90;;;;;;5071962;28;20205;-88
2021/12/05 11:01:05;;;;;;;2.23;1.27;;;5.90;99.90;;;;;;5055519;28;20174;-88
2021/12/05 11:03:31;;;;;;;2.03;1.40;;;5.90;99.90;;;;;;5055005;28;20171;-88
2021/12/05 11:05:58;;;;;;;4.50;2.20;;;5.90;99.90;;;;;;5051348;28;20206;-88
2021/12/05 11:08:37;;;;;;;3.43;2.13;;;6.00;99.90;;;;;;5036790;28;20283;-89
2021/12/05 11:11:09;;;;;;;2.13;1.10;;;6.20;99.90;;;;;;5055258;28;20179;-88
2021/12/05 11:13:37;;;;;;;2.33;1.10;;;6.20;99.90;;;;;;5055141;28;20181;-88
2021/12/05 11:16:24;;;;;;;4.07;1.07;;;6.40;99.90;;;;;;5055164;28;20569;-88
2021/12/05 11:18:50;;;;;;;2.77;1.10;;;6.50;99.90;;;;;;5055388;28;20254;-88
2021/12/05 11:21:34;;;;;;;4.67;1.87;;;6.40;99.90;;;;;;5055864;28;20196;-88
2021/12/05 11:24:11;;;;;;;3.53;1.60;;;6.30;99.90;;;;;;5052047;28;20196;-88
2021/12/05 11:26:40;;;;;;;3.83;1.80;;;6.30;99.90;;;;;;5035666;28;20176;-88
2021/12/05 11:29:07;;;;;;;3.10;1.60;;;6.20;99.90;;;;;;5035138;28;20253;-88
2021/12/05 11:31:36;;;;;;;3.20;1.10;;;6.10;99.90;;;;;;5035781;28;20279;-88
2021/12/05 11:34:03;;;;;;;2.60;1.40;;;6.00;99.90;;;;;;5053142;28;20188;-88
2021/12/05 11:36:57;;;;;;;3.37;1.40;;;5.90;99.90;;;;;;5055230;28;20176;-88
2021/12/05 11:39:26;;;;;;;3.00;2.00;;;5.80;99.90;;;;;;5071626;28;20195;-88
2021/12/05 11:41:55;;;;;;;4.07;1.83;;;5.80;99.90;;;;;;5035136;28;20193;-88
2021/12/05 11:44:24;;;;;;;2.17;1.23;;;5.70;99.90;;;;;;5036439;28;20189;-88
2021/12/05 11:46:54;;;;;;;5.60;2.33;;;5.70;99.90;;;;;;5062869;28;20526;-88
2021/12/05 11:49:23;;;;;;;3.77;1.70;;;5.60;99.90;;;;;;5056895;28;20207;-88
2021/12/05 11:51:56;;;;;;;1.83;1.30;;;5.60;99.90;;;;;;5039658;28;20202;-88
2021/12/05 11:54:43;;;;;;;2.40;1.30;;;5.60;99.90;;;;;;5070003;28;20171;-88
2021/12/05 11:57:31;;;;;;;3.00;1.23;;;5.50;99.90;;;;;;5049326;28;20172;-88
2021/12/05 12:00:07;;;;;;;4.43;1.20;;;5.50;99.90;;;;;;5061647;28;20162;-88
2021/12/05 12:05:56;;;;;;;2.97;1.10;;;5.50;99.90;;;;;;5079000;28;20221;-88
2021/12/05 12:08:23;;;;;;;1.60;0.90;;;5.70;99.90;;;;;;5058171;28;20203;-89
2021/12/05 12:10:57;;;;;;;1.73;1.03;;;5.80;99.90;;;;;;5058432;28;20186;-88
2021/12/05 12:13:29;;;;;;;4.03;2.20;;;5.90;99.90;;;;;;5058542;28;20203;-88
2021/12/05 12:15:59;;;;;;;2.67;1.50;;;6.00;99.90;;;;;;5050636;28;20174;-88
2021/12/05 12:18:31;;;;;;;4.73;1.50;;;6.20;99.90;;;;;;5058222;28;20283;-89
2021/12/05 12:21:04;;;;;;;1.60;1.00;;;6.20;99.90;;;;;;5057960;28;20188;-88
2021/12/05 12:23:30;;;;;;;4.30;1.27;;;6.20;99.90;;;;;;5074941;28;20238;-89
2021/12/05 12:25:59;;;;;;;4.17;1.47;;;6.10;99.90;;;;;;5058352;28;20184;-89
2021/12/05 12:28:25;;;;;;;1.97;1.10;;;5.90;99.90;;;;;;5058239;28;20242;-89
2021/12/05 12:31:21;;;;;;;2.33;1.40;;;5.70;99.90;;;;;;5057997;28;20176;-88
2021/12/05 12:33:53;;;;;;;2.30;1.50;;;5.60;99.90;;;;;;5057906;28;20158;-88
2021/12/05 12:36:55;;;;;;;2.40;1.20;;;5.50;99.90;;;;;;5058144;28;20187;-88
2021/12/05 12:39:21;;;;;;;2.90;1.57;;;5.40;99.90;;;;;;5074490;28;20205;-88
2021/12/05 12:42:06;;;;;;;2.73;1.47;;;5.40;99.90;;;;;;5057784;28;20709;-88
2021/12/05 12:44:34;;;;;;;2.90;1.40;;;5.30;99.90;;;;;;5057934;28;20182;-88
2021/12/05 12:47:05;;;;;;;1.93;1.33;;;5.30;99.90;;;;;;5057654;28;20188;-89
2021/12/05 12:49:35;;;;;;;2.03;1.43;;;5.30;99.90;;;;;;5074509;28;20167;-88
2021/12/05 12:52:14;;;;;;;3.40;1.40;;;5.40;99.90;;;;;;5057864;28;20205;-88
2021/12/05 12:54:42;;;;;;;3.77;1.80;;;5.40;99.90;;;;;;5074028;28;20185;-88
2021/12/05 12:57:19;;;;;;;2.43;1.50;;;5.50;99.90;;;;;;5057768;28;20182;-88
2021/12/05 12:59:56;;;;;;;2.00;1.30;;;5.60;99.90;;;;;;5057265;28;20176;-89
2021/12/05 13:02:55;;;;;;;1.97;1.63;;;5.80;99.90;;;;;;5057534;28;20266;-88
2021/12/05 13:10:52;;;;;;;3.63;1.60;;;6.20;99.90;;;;;;5066230;28;20185;-89
2021/12/05 13:13:26;;;;;;;2.23;1.40;;;6.20;99.90;;;;;;5037401;28;20192;-88
2021/12/05 13:16:17;;;;;;;1.80;1.43;;;6.20;99.90;;;;;;5037656;28;20189;-89
2021/12/05 13:18:47;;;;;;;2.17;1.17;;;6.20;99.90;;;;;;5031543;28;20244;-89
2021/12/05 13:21:30;;;;;;;2.27;1.17;;;6.20;99.90;;;;;;5037548;28;20373;-89
2021/12/05 13:23:56;;;;;;;2.63;1.27;;;6.10;99.90;;;;;;5067855;28;20698;-88
2021/12/05 13:26:36;;;;;;;2.47;1.30;;;6.10;99.90;;;;;;5070016;28;20180;-89
2021/12/05 13:29:25;;;;;;;3.73;1.70;;;6.00;99.90;;;;;;5069973;28;20270;-88
2021/12/05 13:32:08;;;;;;;8.33;4.93;;;5.80;99.90;;;;;;5071744;28;20220;-88
2021/12/05 13:34:34;;;;;;;2.50;1.60;;;5.60;99.90;;;;;;5056705;28;20172;-89
2021/12/05 13:37:31;;;;;;;1.67;0.90;;;5.40;99.90;;;;;;5057086;28;20176;-89
2021/12/05 13:40:09;;;;;;;1.47;1.13;;;5.20;99.90;;;;;;5056463;28;20649;-89
2021/12/05 13:42:34;;;;;;;3.13;1.20;;;5.10;99.90;;;;;;5054994;28;20187;-89
2021/12/05 13:45:09;;;;;;;2.50;1.00;;;5.00;99.90;;;;;;5050409;28;20190;-91
2021/12/05 13:47:57;;;;;;;2.10;1.00;;;5.10;99.90;;;;;;5037481;28;20252;-89
2021/12/05 13:50:27;;;;;;;3.40;1.10;;;5.10;99.90;;;;;;5037156;28;20191;-89
2021/12/05 13:53:32;;;;;;;1.70;0.90;;;5.10;99.90;;;;;;5036936;28;20218;-87
2021/12/05 13:56:08;;;;;;;2.13;1.00;;;5.20;99.90;;;;;;5043157;28;20192;-90
2021/12/05 13:58:41;;;;;;;1.53;0.90;;;5.20;99.90;;;;;;5048417;28;20197;-90
2021/12/05 14:01:43;;;;;;;2.83;0.83;;;5.20;99.90;;;;;;5056415;28;20261;-89
2021/12/05 14:04:23;;;;;;;0.70;0.70;;;5.20;99.90;;;;;;5036584;28;20172;-89
2021/12/05 14:07:05;;;;;;;2.97;1.10;;;5.20;99.90;;;;;;5035391;28;20224;-89
2021/12/05 14:09:31;;;;;;;1.67;0.80;;;5.20;99.90;;;;;;5035801;28;20176;-89
2021/12/05 14:12:18;;;;;;;3.50;1.00;;;5.20;99.90;;;;;;5035789;28;20214;-89
2021/12/05 14:14:46;;;;;;;3.33;2.00;;;5.10;99.90;;;;;;5035972;28;20227;-89
2021/12/05 14:17:22;;;;;;;2.10;1.40;;;5.00;99.90;;;;;;5036222;28;20189;-89
2021/12/05 14:19:54;;;;;;;2.00;1.70;;;5.00;99.90;;;;;;5035311;28;20185;-90
2021/12/05 14:22:22;;;;;;;3.90;2.13;;;4.90;99.90;;;;;;5035886;28;20192;-89
2021/12/05 14:24:54;;;;;;;9.37;6.27;;;4.90;99.90;;;;;;5035740;28;20183;-89
2021/12/05 14:27:25;;;;;;;3.60;1.20;;;4.90;99.90;;;;;;5035639;28;20261;-89
2021/12/05 14:29:52;;;;;;;4.73;2.40;;;4.90;99.90;;;;;;5035927;28;20182;-90
2021/12/05 14:32:26;;;;;;;2.17;1.27;;;5.00;99.90;;;;;;5036006;28;20246;-89
2021/12/05 14:35:00;;;;;;;1.00;0.90;;;5.10;99.90;;;;;;5036928;28;20179;-89
2021/12/05 14:37:28;;;;;;;2.23;1.00;;;5.20;99.90;;;;;;5037290;28;20605;-90
2021/12/05 14:39:59;;;;;;;1.50;1.20;;;5.30;99.90;;;;;;5055761;28;20177;-89
2021/12/05 14:42:29;;;;;;;5.33;2.03;;;5.40;99.90;;;;;;5055901;28;20179;-89
2021/12/05 14:44:59;;;;;;;1.53;1.20;;;5.40;99.90;;;;;;5055789;28;20205;-89
2021/12/05 14:47:30;;;;;;;1.83;0.87;;;5.50;99.90;;;;;;5055992;28;20298;-85
2021/12/05 14:50:21;;;;;;;1.83;0.80;;;5.50;99.90;;;;;;5055208;28;20183;-90
2021/12/05 14:52:54;;;;;;;2.10;1.27;;;5.50;99.90;;;;;;5051791;28;20219;-90
2021/12/05 14:55:58;;;;;;;2.00;1.10;;;5.40;99.90;;;;;;5045562;28;20179;-89
2021/12/05 14:58:30;;;;;;;1.40;1.00;;;5.30;99.90;;;;;;5053256;28;20195;-89
2021/12/05 15:01:13;;;;;;;1.63;1.10;;;5.10;99.90;;;;;;5043461;28;20181;-90
2021/12/05 15:07:07;;;;;;;2.20;1.27;;;4.90;99.90;;;;;;5063584;28;20189;-90
2021/12/05 15:09:37;;;;;;;2.13;1.27;;;4.80;99.90;;;;;;5054837;28;20277;-90
2021/12/05 15:12:18;;;;;;;4.30;2.67;;;4.80;99.90;;;;;;5055372;28;20204;-89
2021/12/05 15:14:52;;;;;;;1.37;1.27;;;4.70;99.90;;;;;;5037383;28;20260;-89
2021/12/05 15:17:21;;;;;;;3.13;1.30;;;4.60;99.90;;;;;;5035668;28;20218;-90
2021/12/05 15:19:51;;;;;;;1.90;1.20;;;4.50;99.90;;;;;;5037365;28;20194;-89
2021/12/05 15:22:21;;;;;;;2.80;1.03;;;4.50;99.90;;;;;;5055884;28;20260;-90
2021/12/05 15:24:58;;;;;;;3.90;1.47;;;4.30;99.90;;;;;;5055864;28;20170;-90
2021/12/05 15:27:26;;;;;;;2.13;1.00;;;4.30;99.90;;;;;;5039164;28;20205;-90
2021/12/05 15:29:58;;;;;;;2.10;1.13;;;4.30;99.90;;;;;;5048364;28;20181;-89
2021/12/05 15:32:28;;;;;;;1.43;1.27;;;4.20;99.90;;;;;;5059275;28;20917;-90
2021/12/05 15:35:18;;;;;;;2.07;1.27;;;4.20;99.90;;;;;;5059319;28;20177;-90
2021/12/05 15:37:50;;;;;;;1.53;1.20;;;4.10;99.90;;;;;;5039163;28;20193;-90
2021/12/05 15:40:17;;;;;;;2.90;1.37;;;4.00;99.90;;;;;;5054991;28;20182;-89
2021/12/05 15:42:43;;;;;;;1.77;1.30;;;3.90;99.90;;;;;;5071856;28;20179;-90
2021/12/05 15:45:12;;;;;;;2.23;1.67;;;4.00;99.90;;;;;;5072426;28;20231;-90
2021/12/05 15:47:39;;;;;;;2.50;1.57;;;3.90;99.90;;;;;;5065908;28;20269;-89
2021/12/05 15:50:17;;;;;;;3.03;2.17;;;3.80;99.90;;;;;;5058498;28;20181;-90
2021/12/05 15:53:05;;;;;;;7.63;4.43;;;3.80;99.90;;;;;;5075392;28;20193;-89
2021/12/05 15:55:40;;;;;;;6.93;4.80;;;3.70;99.90;;;;;;5065275;28;20174;-89
2021/12/05 15:58:12;;;;;;;9.30;4.10;;;3.70;99.90;;;;;;5041349;28;20284;-90
2021/12/05 16:00:46;;;;;;;9.13;4.33;;;3.60;99.90;;;;;;5038966;28;20167;-89
2021/12/05 16:03:24;;;;;;;4.47;2.73;;;3.60;99.90;;;;;;5045364;28;20272;-89
2021/12/05 16:05:59;;;;;;;2.17;1.70;;;3.60;99.90;;;;;;5038568;28;20174;-89
2021/12/05 16:08:30;;;;;;;3.37;2.10;;;3.60;99.90;;;;;;5038163;28;20204;-90
2021/12/05 16:10:59;;;;;;;2.93;1.90;;;3.50;99.90;;;;;;5038335;28;20182;-89
2021/12/05 16:13:40;;;;;;;4.70;2.20;;;3.50;99.90;;;;;;5038285;28;20205;-90
2021/12/05 16:16:23;;;;;;;4.37;2.43;;;3.40;99.90;;;;;;5054834;28;20170;-89
2021/12/05 16:18:54;;;;;;;4.70;3.10;;;3.30;99.90;;;;;;5064001;28;20197;-89
2021/12/05 16:21:26;;;;;;;4.23;2.20;;;3.30;99.90;;;;;;5057979;28;20217;-90
2021/12/05 16:23:54;;;;;;;4.77;1.80;;;3.30;99.90;;;;;;5057927;28;20179;-89
2021/12/05 16:26:26;;;;;;;2.73;1.87;;;3.30;99.90;;;;;;5058247;28;20177;-89
2021/12/05 16:28:56;;;;;;;2.73;1.80;;;3.30;99.90;;;;;;5057702;28;20205;-89
2021/12/05 16:31:33;;;;;;;2.93;1.67;;;3.20;99.90;;;;;;5057569;28;20205;-89
2021/12/05 16:34:11;;;;;;;2.47;1.57;;;3.20;99.90;;;;;;5058274;28;20169;-89
2021/12/05 16:36:46;;;;;;;4.50;2.20;;;3.10;99.90;;;;;;5046682;28;20252;-89
2021/12/05 16:39:15;;;;;;;4.13;2.30;;;3.10;99.90;;;;;;5057751;28;20205;-89
2021/12/05 16:41:47;;;;;;;2.70;1.70;;;3.10;99.90;;;;;;5057882;28;20189;-89
2021/12/05 16:44:19;;;;;;;2.23;1.70;;;3.10;99.90;;;;;;5074541;28;20185;-89
2021/12/05 16:47:08;;;;;;;2.37;1.77;;;3.00;99.90;;;;;;5057840;28;20188;-89
2021/12/05 16:49:36;;;;;;;2.40;1.70;;;3.00;99.90;;;;;;5057400;28;20186;-89
2021/12/05 16:52:20;;;;;;;4.37;1.60;;;2.90;99.90;;;;;;5051145;28;20202;-89
2021/12/05 16:55:01;;;;;;;2.00;1.70;;;2.90;99.90;;;;;;5057279;28;20181;-89
2021/12/05 16:57:41;;;;;;;3.50;2.07;;;2.80;99.90;;;;;;5057843;28;20200;-89
2021/12/05 17:00:15;;;;;;;5.33;2.53;;;2.80;99.90;;;;;;5057563;28;20168;-89
2021/12/05 17:03:07;;;;;;;3.10;2.00;;;2.80;99.90;;;;;;5057673;28;20168;-89
2021/12/05 17:05:36;;;;;;;5.27;2.60;;;2.80;99.90;;;;;;5057239;28;20177;-89
2021/12/05 17:08:23;;;;;;;4.67;2.60;;;2.70;99.90;;;;;;5056850;28;20205;-89
2021/12/05 17:10:57;;;;;;;7.70;3.90;;;2.60;99.90;;;;;;5057008;28;20208;-89
2021/12/05 17:13:49;;;;;;;12.17;5.90;;;2.60;99.90;;;;;;5057452;28;20207;-89
2021/12/05 17:16:25;;;;;;;7.23;4.10;;;2.60;99.90;;;;;;5057146;28;20188;-90
2021/12/05 17:18:57;;;;;;;5.47;3.10;;;2.70;99.90;;;;;;5056761;28;20204;-89
2021/12/05 17:21:40;;;;;;;5.20;3.17;;;2.70;99.90;;;;;;5057127;28;20200;-89
2021/12/05 17:24:10;;;;;;;4.80;2.83;;;2.70;99.90;;;;;;5057346;28;20184;-89
2021/12/05 17:26:52;;;;;;;5.50;3.20;;;2.60;99.90;;;;;;5056506;28;20711;-89
2021/12/05 17:29:22;;;;;;;5.50;3.50;;;2.60;99.90;;;;;;5056715;28;20205;-89
2021/12/05 17:31:59;;;;;;;4.93;3.80;;;2.60;99.90;;;;;;5056928;28;20196;-89
2021/12/05 17:34:31;;;;;;;5.13;4.03;;;2.50;99.90;;;;;;5056611;28;20177;-89
2021/12/05 17:37:26;;;;;;;10.87;7.27;;;2.50;99.90;;;;;;5049775;28;20689;-89
2021/12/05 17:39:52;;;;;;;13.43;7.90;;;2.50;99.90;;;;;;5028782;28;20251;-89
2021/12/05 17:42:24;;;;;;;18.23;11.50;;;2.40;99.90;;;;;;5040478;28;20178;-89
2021/12/05 17:44:55;;;;;;;17.83;9.83;;;2.40;99.90;;;;;;5039400;28;20206;-89
2021/12/05 17:47:21;;;;;;;15.97;10.17;;;2.30;99.90;;;;;;5036990;28;20604;-89
2021/12/05 17:49:57;;;;;;;15.03;8.63;;;2.20;99.90;;;;;;5067348;28;20174;-89
2021/12/05 17:52:26;;;;;;;13.90;9.70;;;2.20;99.90;;;;;;5039917;28;20580;-89
2021/12/05 17:55:18;;;;;;;14.43;9.10;;;2.10;99.90;;;;;;5073441;28;20198;-89
2021/12/05 17:58:22;;;;;;;10.93;7.63;;;2.20;99.90;;;;;;5039668;28;20300;-89
2021/12/05 18:02:38;;;;;;;14.03;8.00;;;2.20;99.90;;;;;;5037707;28;20181;-89
2021/12/05 18:03:51;;;;;;;13.60;8.13;;;2.20;99.90;;;;;;5059584;28;20205;-89
2021/12/05 18:06:24;;;;;;;17.80;9.50;;;2.20;99.90;;;;;;5047769;28;20194;-89
2021/12/05 18:08:51;;;;;;;17.17;10.10;;;2.20;99.90;;;;;;5046901;28;20219;-89
2021/12/05 18:11:24;;;;;;;24.57;11.23;;;2.20;99.90;;;;;;5045879;28;20257;-89
2021/12/05 18:13:57;;;;;;;54.57;23.50;;;2.20;99.90;;;;;;5055851;28;20176;-89
2021/12/05 18:16:47;;;;;;;68.80;27.07;;;2.20;99.90;;;;;;5072015;28;20186;-89
2021/12/05 18:19:19;;;;;;;45.70;18.90;;;2.20;99.90;;;;;;5055247;28;20293;-89
2021/12/05 18:21:48;;;;;;;31.50;15.47;;;2.20;99.90;;;;;;5056175;28;20200;-89
2021/12/05 18:24:16;;;;;;;29.77;13.80;;;2.20;99.90;;;;;;5057449;28;20209;-89
2021/12/05 18:26:44;;;;;;;23.80;11.60;;;2.20;99.90;;;;;;5056679;28;20178;-89
2021/12/05 18:29:16;;;;;;;17.57;8.47;;;2.10;99.90;;;;;;5045768;28;20277;-88
2021/12/05 18:31:45;;;;;;;8.80;6.30;;;2.00;99.90;;;;;;5055263;28;20198;-89
2021/12/05 18:34:20;;;;;;;10.20;6.57;;;1.90;99.90;;;;;;5074313;28;20181;-88
2021/12/05 18:36:47;;;;;;;27.90;17.93;;;1.80;99.90;;;;;;5067636;28;20233;-89
2021/12/05 18:39:20;;;;;;;19.87;14.10;;;1.80;99.90;;;;;;5043667;28;20201;-89
2021/12/05 18:41:46;;;;;;;17.03;11.10;;;1.80;99.90;;;;;;5059292;28;20181;-89
2021/12/05 18:44:17;;;;;;;12.17;8.93;;;1.80;99.90;;;;;;5052207;28;20173;-88
2021/12/05 18:46:45;;;;;;;13.63;8.30;;;1.80;99.90;;;;;;5053238;28;20204;-88
2021/12/05 18:49:11;;;;;;;13.70;7.57;;;1.80;99.90;;;;;;5042142;28;20194;-88
2021/12/05 18:52:00;;;;;;;11.07;7.07;;;1.90;99.90;;;;;;5064989;28;20201;-88
2021/12/05 18:54:30;;;;;;;10.13;5.97;;;1.80;99.90;;;;;;5040039;28;20181;-89